createdAt,value
2019-06-10T00:01:04.213Z,8.23
2019-06-10T00:03:07.244Z,6.87
2019-06-10T00:05:11.415Z,5.87
2019-06-10T00:07:15.297Z,3.40
2019-06-10T00:09:21.092Z,4.83
2019-06-10T00:11:24.995Z,7.63
2019-06-10T00:13:31.251Z,3.03
2019-06-10T00:15:34.619Z,2.47
2019-06-10T00:17:53.162Z,4.93
2019-06-10T00:19:44.198Z,9.67
2019-06-10T00:21:50.719Z,4.37
2019-06-10T00:23:53.920Z,2.50
2019-06-10T00:25:57.963Z,4.80
2019-06-10T00:28:03.008Z,4.20
2019-06-10T00:30:09.291Z,3.50
2019-06-10T00:32:13.563Z,3.63
2019-06-10T00:34:17.420Z,4.37
2019-06-10T00:36:21.656Z,9.37
2019-06-10T00:38:25.689Z,7.73
2019-06-10T00:40:31.636Z,3.13
2019-06-10T00:42:35.263Z,3.73
2019-06-10T00:44:41.498Z,3.97
2019-06-10T00:46:44.898Z,4.07
2019-06-10T00:48:50.759Z,3.40
2019-06-10T00:50:54.520Z,2.23
2019-06-10T00:53:00.920Z,4.70
2019-06-10T00:55:04.852Z,5.73
2019-06-10T00:57:11.949Z,5.63
2019-06-10T00:59:15.564Z,6.10
2019-06-10T01:01:21.855Z,2.30
2019-06-10T01:03:25.352Z,5.43
2019-06-10T01:05:30.988Z,2.30
2019-06-10T01:07:36.096Z,5.37
2019-06-10T01:09:41.267Z,6.00
2019-06-10T01:11:45.338Z,7.13
2019-06-10T01:13:50.811Z,5.30
2019-06-10T01:15:55.063Z,5.10
2019-06-10T01:18:01.269Z,4.43
2019-06-10T01:20:05.810Z,9.97
2019-06-10T01:22:11.119Z,5.30
2019-06-10T01:24:15.407Z,4.07
2019-06-10T01:26:21.565Z,6.73
2019-06-10T01:28:25.091Z,3.57
2019-06-10T01:30:31.076Z,4.40
2019-06-10T01:32:34.810Z,4.07
2019-06-10T01:34:38.733Z,5.17
2019-06-10T01:36:42.691Z,4.33
2019-06-10T01:38:46.629Z,2.30
2019-06-10T01:40:51.066Z,3.43
2019-06-10T01:42:55.175Z,3.00
2019-06-10T01:45:01.052Z,5.27
2019-06-10T01:47:04.787Z,3.10
2019-06-10T01:49:09.578Z,2.43
2019-06-10T01:51:21.043Z,3.70
2019-06-10T01:53:24.103Z,3.43
2019-06-10T01:55:27.931Z,3.17
2019-06-10T01:57:31.751Z,5.10
2019-06-10T01:59:35.619Z,3.30
2019-06-10T02:02:05.173Z,8.80
2019-06-10T02:04:11.577Z,2.83
2019-06-10T02:06:18.057Z,4.97
2019-06-10T02:08:22.195Z,4.57
2019-06-10T02:10:26.463Z,3.30
2019-06-10T02:12:31.527Z,4.30
2019-06-10T02:14:35.603Z,2.60
2019-06-10T02:16:41.460Z,2.10
2019-06-10T02:18:59.786Z,3.27
2019-06-10T02:20:51.447Z,5.87
2019-06-10T02:22:55.399Z,3.77
2019-06-10T02:25:01.273Z,5.30
2019-06-10T02:27:05.052Z,3.50
2019-06-10T02:29:11.194Z,7.90
2019-06-10T02:31:18.829Z,3.10
2019-06-10T02:33:27.870Z,4.83
2019-06-10T02:35:37.571Z,3.00
2019-06-10T02:37:37.095Z,2.60
2019-06-10T02:39:38.994Z,6.30
2019-06-10T02:41:44.557Z,4.93
2019-06-10T02:43:49.229Z,4.50
2019-06-10T02:45:53.269Z,4.23
2019-06-10T02:47:57.386Z,3.07
2019-06-10T02:50:04.558Z,4.20
2019-06-10T02:52:20.748Z,4.13
2019-06-10T02:54:31.312Z,2.50
2019-06-10T02:56:35.797Z,3.47
2019-06-10T02:58:39.480Z,5.40
2019-06-10T03:00:48.296Z,7.53
2019-06-10T03:02:48.344Z,4.07
2019-06-10T03:04:53.641Z,8.20
2019-06-10T03:06:57.758Z,6.53
2019-06-10T03:09:03.718Z,5.70
2019-06-10T03:11:07.277Z,2.63
2019-06-10T03:13:12.681Z,4.07
2019-06-10T03:15:17.887Z,3.50
2019-06-10T03:17:25.839Z,6.60
2019-06-10T03:19:41.892Z,2.87
2019-06-10T03:21:34.651Z,2.80
2019-06-10T03:23:38.551Z,2.93
2019-06-10T03:25:42.478Z,3.20
2019-06-10T03:27:46.515Z,2.80
2019-06-10T03:29:52.570Z,5.03
2019-06-10T03:31:56.160Z,4.93
2019-06-10T03:34:04.562Z,5.57
2019-06-10T03:36:06.055Z,2.87
2019-06-10T03:38:12.256Z,4.83
2019-06-10T03:40:16.465Z,2.73
2019-06-10T03:42:21.354Z,6.87
2019-06-10T03:44:27.135Z,6.63
2019-06-10T03:46:32.893Z,6.10
2019-06-10T03:48:36.763Z,6.23
2019-06-10T03:50:43.014Z,6.20
2019-06-10T03:52:46.635Z,5.27
2019-06-10T03:54:52.465Z,2.80
2019-06-10T03:56:56.159Z,9.00
2019-06-10T03:59:02.608Z,8.40
2019-06-10T04:01:05.802Z,6.00
2019-06-10T04:03:12.006Z,4.73
2019-06-10T04:05:15.587Z,3.93
2019-06-10T04:07:20.864Z,6.03
2019-06-10T04:09:25.829Z,6.57
2019-06-10T04:11:33.013Z,14.47
2019-06-10T04:13:36.367Z,6.20
2019-06-10T04:15:42.895Z,4.57
2019-06-10T04:17:45.834Z,6.70
2019-06-10T04:20:05.206Z,5.83
2019-06-10T04:21:55.255Z,11.60
2019-06-10T04:23:59.083Z,7.47
2019-06-10T04:26:02.943Z,3.53
2019-06-10T04:28:06.793Z,3.23
2019-06-10T04:30:12.782Z,8.10
2019-06-10T04:32:16.671Z,8.37
2019-06-10T04:34:23.768Z,15.00
2019-06-10T04:36:26.627Z,10.77
2019-06-10T04:38:32.833Z,3.40
2019-06-10T04:40:37.060Z,5.40
2019-06-10T04:42:43.362Z,3.90
2019-06-10T04:44:46.575Z,6.30
2019-06-10T04:46:52.060Z,4.57
2019-06-10T04:48:56.060Z,7.70
2019-06-10T04:51:02.455Z,3.97
2019-06-10T04:53:05.526Z,4.40
2019-06-10T04:55:09.771Z,8.23
2019-06-10T04:57:13.719Z,4.43
2019-06-10T04:59:18.797Z,6.77
2019-06-10T05:01:25.472Z,2.83
2019-06-10T05:03:29.585Z,4.77
2019-06-10T05:05:33.590Z,7.70
2019-06-10T05:07:37.417Z,8.07
2019-06-10T05:09:42.222Z,4.60
2019-06-10T05:11:46.422Z,5.30
2019-06-10T05:13:50.325Z,5.90
2019-06-10T05:15:54.336Z,8.83
2019-06-10T05:17:58.211Z,6.00
2019-06-10T05:20:02.679Z,3.20
2019-06-10T05:22:06.925Z,3.73
2019-06-10T05:24:12.389Z,4.37
2019-06-10T05:26:16.584Z,4.70
2019-06-10T05:28:22.710Z,6.20
2019-06-10T05:30:27.758Z,6.40
2019-06-10T05:32:33.457Z,5.10
2019-06-10T05:34:37.580Z,7.47
2019-06-10T05:36:43.524Z,5.27
2019-06-10T05:38:47.179Z,4.77
2019-06-10T05:40:52.108Z,4.67
2019-06-10T05:42:56.147Z,6.20
2019-06-10T05:45:00.115Z,3.43
2019-06-10T05:47:04.426Z,5.37
2019-06-10T05:49:08.505Z,8.47
2019-06-10T05:51:12.614Z,6.03
2019-06-10T05:53:16.675Z,4.20
2019-06-10T05:55:22.507Z,6.07
2019-06-10T05:57:27.319Z,6.17
2019-06-10T05:59:32.124Z,4.90
2019-06-10T06:01:38.631Z,6.00
2019-06-10T06:03:43.858Z,3.80
2019-06-10T06:05:48.351Z,10.13
2019-06-10T06:08:02.317Z,6.33
2019-06-10T06:09:57.847Z,13.83
2019-06-10T06:12:02.516Z,4.63
2019-06-10T06:14:06.744Z,6.93
2019-06-10T06:16:12.661Z,8.43
2019-06-10T06:18:16.252Z,3.10
2019-06-10T06:20:20.375Z,7.87
2019-06-10T06:22:25.345Z,5.00
2019-06-10T06:24:29.591Z,5.77
2019-06-10T06:26:37.617Z,6.67
2019-06-10T06:28:39.186Z,7.60
2019-06-10T06:30:43.191Z,6.03
2019-06-10T06:32:47.023Z,3.43
2019-06-10T06:34:52.639Z,7.90
2019-06-10T06:36:56.485Z,4.00
2019-06-10T06:39:02.345Z,7.47
2019-06-10T06:41:06.085Z,7.63
2019-06-10T06:43:12.068Z,6.47
2019-06-10T06:45:17.136Z,5.90
2019-06-10T06:47:22.627Z,7.77
2019-06-10T06:49:27.845Z,8.77
2019-06-10T06:51:46.892Z,8.10
2019-06-10T06:53:45.328Z,4.47
2019-06-10T06:55:43.412Z,4.77
2019-06-10T06:57:47.522Z,6.07
2019-06-10T06:59:52.665Z,5.30
2019-06-10T07:01:56.831Z,2.70
2019-06-10T07:04:02.683Z,5.13
2019-06-10T07:06:06.752Z,5.07
2019-06-10T07:08:12.928Z,4.07
2019-06-10T07:10:16.611Z,8.83
2019-06-10T07:12:24.508Z,7.30
2019-06-10T07:14:31.953Z,5.43
2019-06-10T07:16:38.670Z,3.60
2019-06-10T07:18:49.047Z,3.03
2019-06-10T07:20:46.716Z,6.20
2019-06-10T07:22:53.169Z,5.00
2019-06-10T07:24:56.280Z,2.73
2019-06-10T07:27:02.630Z,4.90
2019-06-10T07:29:05.864Z,6.93
2019-06-10T07:31:20.940Z,3.47
2019-06-10T07:33:15.279Z,5.57
2019-06-10T07:35:19.303Z,7.33
2019-06-10T07:37:23.351Z,2.67
2019-06-10T07:39:27.291Z,5.63
2019-06-10T07:41:32.812Z,4.93
2019-06-10T07:43:40.618Z,5.20
2019-06-10T07:45:47.385Z,4.27
2019-06-10T07:47:48.309Z,9.83
2019-06-10T07:49:52.375Z,6.27
2019-06-10T07:52:09.588Z,6.10
2019-06-10T07:54:03.174Z,6.80
2019-06-10T07:56:07.368Z,3.20
2019-06-10T07:58:12.990Z,6.70
2019-06-10T08:00:17.636Z,5.13
2019-06-10T08:02:23.188Z,8.27
2019-06-10T08:04:27.266Z,5.70
2019-06-10T08:06:33.524Z,4.77
2019-06-10T08:08:36.856Z,7.40
2019-06-10T08:10:44.725Z,2.60
2019-06-10T08:12:48.243Z,10.07
2019-06-10T08:14:53.241Z,5.40
2019-06-10T08:16:57.399Z,5.93
2019-06-10T08:19:22.041Z,6.90
2019-06-10T08:21:06.835Z,9.33
2019-06-10T08:23:12.602Z,5.80
2019-06-10T08:25:16.543Z,8.40
2019-06-10T08:27:22.574Z,8.43
2019-06-10T08:29:26.172Z,5.30
2019-06-10T08:31:30.098Z,4.03
2019-06-10T08:33:34.115Z,3.50
2019-06-10T08:35:47.006Z,4.63
2019-06-10T08:37:45.952Z,6.40
2019-06-10T08:39:49.515Z,7.17
2019-06-10T08:41:53.583Z,7.57
2019-06-10T08:43:57.499Z,5.43
2019-06-10T08:46:02.601Z,4.57
2019-06-10T08:48:07.119Z,8.57
2019-06-10T08:50:12.962Z,9.00
2019-06-10T08:52:16.923Z,13.50
2019-06-10T08:54:23.258Z,5.50
2019-06-10T08:56:26.611Z,6.77
2019-06-10T08:58:32.616Z,3.97
2019-06-10T09:00:37.370Z,3.77
2019-06-10T09:02:45.972Z,6.90
2019-06-10T09:04:50.570Z,4.37
2019-06-10T09:06:54.779Z,3.60
2019-06-10T09:08:58.652Z,11.30
2019-06-10T09:11:02.655Z,6.20
2019-06-10T09:13:06.619Z,4.57
2019-06-10T09:15:13.016Z,5.43
2019-06-10T09:17:17.067Z,4.03
2019-06-10T09:19:22.202Z,5.03
2019-06-10T09:21:26.315Z,3.40
2019-06-10T09:23:30.154Z,3.60
2019-06-10T09:25:34.097Z,5.20
2019-06-10T09:27:40.084Z,4.70
2019-06-10T09:29:48.008Z,7.03
2019-06-10T09:31:53.273Z,4.40
2019-06-10T09:33:57.026Z,5.07
2019-06-10T09:36:03.332Z,6.90
2019-06-10T09:38:06.971Z,4.90
2019-06-10T09:40:13.764Z,5.90
2019-06-10T09:42:17.618Z,4.00
2019-06-10T09:44:22.886Z,4.93
2019-06-10T09:46:29.705Z,4.47
2019-06-10T09:48:33.915Z,5.80
2019-06-10T09:50:47.079Z,3.90
2019-06-10T09:52:51.248Z,4.53
2019-06-10T09:54:56.794Z,4.50
2019-06-10T09:56:58.508Z,2.97
2019-06-10T09:59:04.014Z,3.00
2019-06-10T10:01:08.125Z,4.80
2019-06-10T10:03:12.471Z,5.27
2019-06-10T10:05:16.513Z,8.43
2019-06-10T10:07:22.652Z,5.13
2019-06-10T10:09:26.559Z,4.23
2019-06-10T10:11:32.076Z,6.80
2019-06-10T10:13:36.158Z,6.57
2019-06-10T10:15:41.760Z,10.83
2019-06-10T10:17:48.259Z,3.90
2019-06-10T10:19:55.791Z,7.90
2019-06-10T10:21:58.572Z,8.30
2019-06-10T10:24:08.159Z,5.70
2019-06-10T10:26:08.387Z,4.87
2019-06-10T10:28:13.433Z,3.80
2019-06-10T10:30:24.472Z,3.63
2019-06-10T10:32:28.132Z,7.10
2019-06-10T10:34:33.326Z,4.47
2019-06-10T10:36:37.585Z,8.13
2019-06-10T10:38:42.787Z,3.10
2019-06-10T10:41:13.377Z,3.73
2019-06-10T10:43:28.999Z,8.00
2019-06-10T10:45:24.447Z,11.43
2019-06-10T10:47:28.408Z,4.50
2019-06-10T10:49:32.611Z,3.70
2019-06-10T10:51:36.760Z,4.10
2019-06-10T10:53:40.788Z,5.33
2019-06-10T10:55:45.268Z,4.90
2019-06-10T10:57:49.407Z,7.97
2019-06-10T10:59:56.027Z,5.30
2019-06-10T11:01:58.924Z,6.43
2019-06-10T11:04:03.771Z,4.50
2019-06-10T11:06:07.895Z,7.20
2019-06-10T11:08:13.508Z,5.87
2019-06-10T11:10:17.499Z,3.60
2019-06-10T11:12:23.724Z,5.87
2019-06-10T11:14:29.029Z,8.33
2019-06-10T11:16:33.201Z,9.53
2019-06-10T11:18:37.267Z,4.13
2019-06-10T11:20:41.357Z,9.17
2019-06-10T11:22:45.805Z,3.33
2019-06-10T11:24:51.297Z,7.70
2019-06-10T11:26:56.548Z,4.27
2019-06-10T11:29:02.938Z,6.90
2019-06-10T11:31:06.334Z,6.90
2019-06-10T11:33:10.400Z,6.03
2019-06-10T11:35:14.428Z,3.80
2019-06-10T11:37:23.015Z,4.27
2019-06-10T11:39:26.616Z,4.40
2019-06-10T11:41:32.491Z,4.57
2019-06-10T11:43:36.172Z,7.00
2019-06-10T11:45:47.371Z,6.87
2019-06-10T11:47:46.667Z,10.57
2019-06-10T11:49:54.608Z,5.27
2019-06-10T11:51:57.946Z,5.50
2019-06-10T11:54:03.434Z,4.97
2019-06-10T11:56:07.547Z,9.83
2019-06-10T11:58:11.380Z,3.60
2019-06-10T12:00:17.535Z,5.40
2019-06-10T12:02:22.809Z,7.60
2019-06-10T12:04:26.991Z,6.53
2019-06-10T12:06:33.375Z,10.20
2019-06-10T12:08:36.866Z,12.53
2019-06-10T12:10:43.246Z,4.87
2019-06-10T12:12:46.507Z,3.63
2019-06-10T12:14:54.632Z,4.43
2019-06-10T12:19:03.604Z,9.63
2019-06-10T12:21:07.409Z,9.20
2019-06-10T12:23:12.655Z,5.93
2019-06-10T12:25:31.331Z,7.13
2019-06-10T12:27:23.030Z,6.93
2019-06-10T12:29:26.857Z,5.17
2019-06-10T12:31:30.745Z,4.80
2019-06-10T12:33:34.641Z,4.07
2019-06-10T12:37:35.665Z,3.80
2019-06-10T12:39:42.058Z,4.87
2019-06-10T12:41:45.149Z,7.60
2019-06-10T12:43:49.112Z,7.97
2019-06-10T12:45:54.700Z,3.07
2019-06-10T12:47:59.976Z,4.43
2019-06-10T12:50:05.799Z,7.60
2019-06-10T12:52:09.647Z,8.20
2019-06-10T12:54:13.631Z,8.30
2019-06-10T12:56:17.520Z,3.33
2019-06-10T12:58:22.593Z,5.23
2019-06-10T13:00:28.189Z,5.70
2019-06-10T13:02:34.630Z,6.50
2019-06-10T13:04:38.907Z,5.17
2019-06-10T13:06:43.787Z,5.27
2019-06-10T13:08:48.423Z,4.93
2019-06-10T13:10:53.282Z,5.00
2019-06-10T13:12:57.917Z,5.30
2019-06-10T13:15:04.755Z,3.60
2019-06-10T13:17:08.432Z,5.30
2019-06-10T13:19:13.447Z,3.77
2019-06-10T13:21:17.983Z,8.83
2019-06-10T13:23:28.472Z,9.00
2019-06-10T13:25:27.704Z,5.57
2019-06-10T13:27:31.988Z,7.10
2019-06-10T13:29:35.859Z,10.57
2019-06-10T13:31:39.691Z,8.93
2019-06-10T13:33:43.732Z,6.60
2019-06-10T13:35:47.755Z,4.50
2019-06-10T13:37:52.322Z,4.07
2019-06-10T13:39:57.520Z,6.60
2019-06-10T13:42:04.989Z,5.70
2019-06-10T13:44:08.366Z,8.07
2019-06-10T13:46:12.459Z,5.43
2019-06-10T13:48:16.377Z,5.97
2019-06-10T13:50:22.115Z,8.53
2019-06-10T13:52:26.411Z,4.60
2019-06-10T13:54:30.315Z,6.03
2019-06-10T13:56:45.702Z,6.70
2019-06-10T13:58:45.001Z,5.00
2019-06-10T14:00:46.741Z,4.33
2019-06-10T14:02:52.269Z,5.90
2019-06-10T14:04:56.418Z,4.07
2019-06-10T14:07:02.395Z,6.20
2019-06-10T14:09:10.072Z,3.67
2019-06-10T14:11:13.450Z,6.30
2019-06-10T14:13:18.075Z,6.83
2019-06-10T14:15:22.718Z,5.33
2019-06-10T14:17:26.713Z,7.67
2019-06-10T14:19:32.475Z,4.30
2019-06-10T14:21:36.598Z,7.67
2019-06-10T14:23:42.348Z,10.20
2019-06-10T14:25:46.259Z,4.83
2019-06-10T14:27:50.169Z,6.17
2019-06-10T14:29:54.112Z,6.10
2019-06-10T14:31:58.096Z,7.70
2019-06-10T14:34:05.335Z,5.03
2019-06-10T14:36:08.912Z,4.70
2019-06-10T14:38:15.813Z,7.83
2019-06-10T14:40:20.991Z,8.53
2019-06-10T14:42:24.835Z,5.53
2019-06-10T14:44:28.693Z,6.93
2019-06-10T14:46:33.038Z,8.13
2019-06-10T14:48:37.084Z,7.80
2019-06-10T14:50:43.499Z,5.00
2019-06-10T14:52:46.716Z,6.03
2019-06-10T14:54:52.953Z,7.60
2019-06-10T14:56:57.410Z,5.70
2019-06-10T14:59:02.414Z,8.53
2019-06-10T15:01:09.161Z,6.57
2019-06-10T15:03:16.218Z,6.70
2019-06-10T15:05:19.533Z,5.80
2019-06-10T15:07:24.100Z,9.67
2019-06-10T15:09:28.225Z,6.40
2019-06-10T15:11:32.265Z,7.77
2019-06-10T15:13:39.414Z,11.10
2019-06-10T15:15:43.323Z,8.70
2019-06-10T15:17:47.227Z,6.10
2019-06-10T15:19:53.024Z,6.10
2019-06-10T15:21:56.798Z,4.53
2019-06-10T15:24:02.830Z,8.13
2019-06-10T15:26:06.249Z,5.53
2019-06-10T15:28:12.736Z,6.37
2019-06-10T15:30:24.507Z,6.47
2019-06-10T15:32:33.885Z,4.10
2019-06-10T15:34:27.576Z,7.10
2019-06-10T15:36:32.712Z,6.80
2019-06-10T15:38:36.815Z,4.67
2019-06-10T15:40:43.148Z,4.70
2019-06-10T15:42:46.287Z,4.33
2019-06-10T15:44:55.218Z,6.50
2019-06-10T15:46:55.767Z,10.30
2019-06-10T15:49:02.185Z,4.50
2019-06-10T15:51:05.259Z,5.87
2019-06-10T15:53:10.497Z,4.50
2019-06-10T15:55:42.450Z,5.17
2019-06-10T15:57:34.791Z,4.27
2019-06-10T15:59:26.734Z,8.00
2019-06-10T16:01:32.590Z,5.13
2019-06-10T16:03:36.148Z,11.37
2019-06-10T16:05:39.989Z,3.93
2019-06-10T16:07:43.887Z,7.33
2019-06-10T16:09:47.806Z,9.50
2019-06-10T16:11:53.720Z,13.03
2019-06-10T16:13:57.435Z,10.17
2019-06-10T16:16:03.607Z,13.13
2019-06-10T16:18:07.132Z,10.33
2019-06-10T16:20:13.093Z,6.70
2019-06-10T16:22:17.416Z,8.40
2019-06-10T16:24:25.204Z,8.80
2019-06-10T16:26:27.187Z,12.87
2019-06-10T16:28:32.915Z,7.77
2019-06-10T16:30:36.956Z,5.47
2019-06-10T16:32:40.839Z,5.87
2019-06-10T16:34:44.735Z,6.63
2019-06-10T16:36:48.559Z,4.60
2019-06-10T16:38:52.925Z,8.17
2019-06-10T16:40:56.963Z,10.53
2019-06-10T16:43:00.786Z,5.77
2019-06-10T16:45:05.137Z,6.80
2019-06-10T16:47:09.095Z,7.50
2019-06-10T16:49:13.021Z,6.40
2019-06-10T16:51:17.436Z,6.47
2019-06-10T16:53:27.904Z,6.87
2019-06-10T16:55:27.380Z,4.93
2019-06-10T16:57:33.412Z,9.57
2019-06-10T16:59:37.069Z,10.00
2019-06-10T17:01:42.825Z,9.93
2019-06-10T17:03:46.924Z,13.73
2019-06-10T17:05:53.121Z,6.30
2019-06-10T17:07:56.463Z,8.07
2019-06-10T17:10:02.317Z,10.37
2019-06-10T17:12:06.051Z,4.73
2019-06-10T17:14:12.387Z,6.67
2019-06-10T17:16:15.477Z,8.93
2019-06-10T17:18:21.063Z,8.27
2019-06-10T17:20:27.722Z,7.70
2019-06-10T17:22:32.875Z,9.83
2019-06-10T17:24:36.564Z,10.20
2019-06-10T17:26:42.437Z,4.40
2019-06-10T17:28:45.963Z,9.93
2019-06-10T17:30:52.884Z,8.33
2019-06-10T17:32:55.656Z,10.73
2019-06-10T17:35:02.134Z,6.63
2019-06-10T17:37:05.355Z,14.10
2019-06-10T17:39:09.468Z,11.27
2019-06-10T17:41:13.463Z,10.70
2019-06-10T17:43:17.564Z,9.97
2019-06-10T17:45:24.503Z,10.20
2019-06-10T17:47:27.856Z,6.30
2019-06-10T17:49:34.703Z,11.60
2019-06-10T17:51:38.591Z,16.40
2019-06-10T17:53:42.842Z,11.37
2019-06-10T17:55:46.953Z,10.77
2019-06-10T17:57:50.876Z,7.17
2019-06-10T17:59:54.779Z,11.23
2019-06-10T18:01:58.723Z,10.43
2019-06-10T18:04:02.653Z,4.80
2019-06-10T18:06:06.867Z,12.33
2019-06-10T18:08:12.949Z,5.53
2019-06-10T18:10:16.912Z,8.40
2019-06-10T18:12:22.275Z,7.27
2019-06-10T18:14:26.451Z,7.37
2019-06-10T18:16:30.401Z,13.17
2019-06-10T18:18:37.096Z,10.07
2019-06-10T18:20:39.885Z,10.10
2019-06-10T18:22:43.855Z,7.60
2019-06-10T18:24:47.904Z,6.97
2019-06-10T18:26:52.863Z,9.03
2019-06-10T18:29:04.904Z,14.53
2019-06-10T18:31:02.662Z,9.83
2019-06-10T18:33:06.643Z,11.10
2019-06-10T18:35:11.126Z,6.80
2019-06-10T18:37:15.095Z,12.27
2019-06-10T18:39:18.963Z,6.73
2019-06-10T18:41:22.907Z,10.63
2019-06-10T18:43:27.665Z,12.43
2019-06-10T18:45:35.088Z,11.67
2019-06-10T18:47:38.767Z,9.13
2019-06-10T18:49:43.228Z,12.60
2019-06-10T18:51:47.440Z,10.67
2019-06-10T18:53:51.312Z,11.07
2019-06-10T18:55:55.211Z,14.47
2019-06-10T18:57:59.155Z,13.17
2019-06-10T19:00:10.921Z,9.47
2019-06-10T19:02:09.291Z,11.17
2019-06-10T19:04:13.242Z,17.90
2019-06-10T19:06:17.344Z,17.20
2019-06-10T19:08:22.383Z,10.43
2019-06-10T19:10:26.723Z,13.73
2019-06-10T19:12:31.718Z,14.27
2019-06-10T19:14:38.048Z,8.47
2019-06-10T19:16:42.956Z,11.20
2019-06-10T19:18:47.180Z,15.83
2019-06-10T19:20:53.032Z,14.70
2019-06-10T19:22:56.865Z,10.27
2019-06-10T19:25:03.493Z,15.47
2019-06-10T19:27:06.307Z,13.73
2019-06-10T19:29:10.336Z,12.37
2019-06-10T19:31:14.314Z,12.13
2019-06-10T19:33:18.380Z,17.03
2019-06-10T19:35:22.469Z,11.90
2019-06-10T19:37:26.430Z,8.20
2019-06-10T19:39:33.207Z,9.40
2019-06-10T19:41:38.189Z,12.37
2019-06-10T19:43:43.990Z,8.37
2019-06-10T19:45:47.223Z,14.17
2019-06-10T19:47:52.278Z,13.87
2019-06-10T19:49:56.301Z,11.53
2019-06-10T19:52:00.168Z,13.23
2019-06-10T19:54:04.223Z,17.10
2019-06-10T19:56:08.206Z,10.23
2019-06-10T19:58:13.406Z,12.83
2019-06-10T20:00:18.204Z,16.60
2019-06-10T20:02:22.535Z,12.93
2019-06-10T20:04:26.579Z,11.10
2019-06-10T20:06:32.260Z,8.90
2019-06-10T20:08:36.226Z,12.97
2019-06-10T20:10:40.246Z,12.27
2019-06-10T20:12:46.659Z,9.13
2019-06-10T20:14:49.812Z,16.73
2019-06-10T20:16:53.790Z,15.03
2019-06-10T20:18:57.746Z,10.70
2019-06-10T20:21:02.647Z,10.50
2019-06-10T20:23:08.811Z,13.13
2019-06-10T20:25:13.048Z,10.93
2019-06-10T20:27:17.019Z,10.20
2019-06-10T20:29:22.147Z,15.67
2019-06-10T20:31:26.364Z,10.30
2019-06-10T20:33:36.301Z,15.37
2019-06-10T20:35:40.391Z,14.13
2019-06-10T20:37:44.667Z,14.13
2019-06-10T20:39:50.475Z,11.40
2019-06-10T20:41:55.719Z,15.67
2019-06-10T20:44:02.652Z,12.93
2019-06-10T20:46:06.126Z,14.27
2019-06-10T20:48:10.236Z,17.50
2019-06-10T20:50:14.575Z,14.13
2019-06-10T20:52:18.479Z,17.40
2019-06-10T20:54:23.175Z,21.13
2019-06-10T20:56:27.656Z,17.63
2019-06-10T20:58:33.152Z,12.63
2019-06-10T21:00:41.928Z,15.93
2019-06-10T21:02:45.855Z,14.93
2019-06-10T21:04:50.048Z,14.43
2019-06-10T21:06:55.840Z,15.67
2019-06-10T21:09:02.771Z,15.33
2019-06-10T21:11:06.451Z,19.13
2019-06-10T21:13:12.358Z,9.80
2019-06-10T21:15:16.459Z,11.03
2019-06-10T21:17:22.633Z,10.83
2019-06-10T21:19:25.931Z,11.00
2019-06-10T21:21:29.783Z,12.80
2019-06-10T21:23:33.910Z,10.67
2019-06-10T21:25:37.763Z,8.20
2019-06-10T21:27:43.727Z,13.53
2019-06-10T21:29:49.027Z,15.77
2019-06-10T21:31:54.875Z,12.23
2019-06-10T21:33:59.055Z,10.20
2019-06-10T21:36:04.090Z,12.73
2019-06-10T21:38:08.159Z,16.80
2019-06-10T21:40:12.797Z,15.37
2019-06-10T21:42:16.971Z,13.67
2019-06-10T21:44:23.209Z,9.13
2019-06-10T21:46:26.555Z,13.40
2019-06-10T21:48:32.392Z,17.03
2019-06-10T21:50:36.108Z,13.57
2019-06-10T21:52:39.940Z,13.13
2019-06-10T21:54:45.161Z,8.77
2019-06-10T21:56:49.323Z,12.57
2019-06-10T21:58:54.147Z,17.83
2019-06-10T22:01:09.767Z,23.43
2019-06-10T22:03:05.014Z,17.47
2019-06-10T22:05:09.359Z,14.10
2019-06-10T22:07:13.306Z,17.03
2019-06-10T22:09:17.127Z,14.57
2019-06-10T22:11:23.134Z,15.37
2019-06-10T22:13:26.862Z,15.60
2019-06-10T22:15:33.343Z,14.00
2019-06-10T22:17:36.544Z,18.13
2019-06-10T22:19:42.621Z,19.00
2019-06-10T22:21:46.478Z,16.57
2019-06-10T22:23:53.125Z,23.07
2019-06-10T22:25:57.667Z,18.77
2019-06-10T22:28:02.732Z,21.83
2019-06-10T22:30:11.250Z,27.67
2019-06-10T22:32:13.043Z,19.23
2019-06-10T22:34:17.112Z,24.37
2019-06-10T22:36:23.023Z,22.50
2019-06-10T22:38:26.792Z,16.13
2019-06-10T22:40:32.834Z,20.20
2019-06-10T22:42:36.458Z,15.70
2019-06-10T22:44:42.400Z,16.53
2019-06-10T22:46:47.515Z,16.13
2019-06-10T22:48:51.447Z,24.87
2019-06-10T22:50:55.485Z,14.40
2019-06-10T22:52:59.707Z,16.53
2019-06-10T22:55:03.924Z,18.30
2019-06-10T22:57:07.844Z,18.50
2019-06-10T22:59:13.207Z,20.00
2019-06-10T23:01:30.852Z,20.30
2019-06-10T23:03:22.863Z,19.53
2019-06-10T23:05:26.976Z,16.40
2019-06-10T23:07:32.961Z,14.40
2019-06-10T23:09:36.616Z,24.57
2019-06-10T23:11:42.391Z,16.80
2019-06-10T23:13:46.256Z,18.33
2019-06-10T23:15:53.200Z,23.40
2019-06-10T23:17:57.458Z,24.73
2019-06-10T23:20:03.216Z,18.63
2019-06-10T23:22:07.028Z,15.90
2019-06-10T23:24:13.248Z,22.07
2019-06-10T23:26:16.520Z,20.40
2019-06-10T23:28:22.205Z,17.90
2019-06-10T23:30:26.288Z,22.07
2019-06-10T23:32:32.679Z,18.33
2019-06-10T23:34:35.975Z,15.97
2019-06-10T23:36:39.959Z,14.30
2019-06-10T23:38:43.896Z,19.77
2019-06-10T23:40:47.910Z,19.13
2019-06-10T23:42:53.026Z,17.00
2019-06-10T23:44:57.308Z,19.30
2019-06-10T23:47:03.760Z,17.10
2019-06-10T23:49:06.974Z,19.27
2019-06-10T23:51:12.100Z,22.70
2019-06-10T23:53:16.252Z,22.13
2019-06-10T23:55:22.537Z,25.53
2019-06-10T23:57:25.811Z,19.40
2019-06-10T23:59:29.788Z,19.83
